sensor_id;sensor_type;location;lat;lon;timestamp;temperature;humidity
15217;DHT22;7711;46.634;14.318;2024-02-14T00:00:55;-0.60;99.90
15217;DHT22;7711;46.634;14.318;2024-02-14T00:03:22;-0.60;99.90
15217;DHT22;7711;46.634;14.318;2024-02-14T00:05:49;-0.60;99.90
15217;DHT22;7711;46.634;14.318;2024-02-14T00:08:17;-0.40;99.90
15217;DHT22;7711;46.634;14.318;2024-02-14T00:10:44;-0.80;99.90
15217;DHT22;7711;46.634;14.318;2024-02-14T00:13:12;-0.80;99.90
15217;DHT22;7711;46.634;14.318;2024-02-14T00:15:39;-1.00;99.90
15217;DHT22;7711;46.634;14.318;2024-02-14T00:18:08;-1.00;99.90
15217;DHT22;7711;46.634;14.318;2024-02-14T00:20:36;-0.80;99.90
15217;DHT22;7711;46.634;14.318;2024-02-14T00:23:04;-1.00;99.90
15217;DHT22;7711;46.634;14.318;2024-02-14T00:25:31;-1.00;99.90
15217;DHT22;7711;46.634;14.318;2024-02-14T00:27:58;-1.10;99.90
15217;DHT22;7711;46.634;14.318;2024-02-14T00:30:26;-1.10;99.90
15217;DHT22;7711;46.634;14.318;2024-02-14T00:32:53;-1.20;99.90
15217;DHT22;7711;46.634;14.318;2024-02-14T00:35:21;-1.10;99.90
15217;DHT22;7711;46.634;14.318;2024-02-14T00:37:48;-1.20;99.90
15217;DHT22;7711;46.634;14.318;2024-02-14T00:40:15;-1.10;99.90
15217;DHT22;7711;46.634;14.318;2024-02-14T00:42:43;-1.20;99.90
15217;DHT22;7711;46.634;14.318;2024-02-14T00:45:10;-1.20;99.90
15217;DHT22;7711;46.634;14.318;2024-02-14T00:47:37;-1.20;99.90
15217;DHT22;7711;46.634;14.318;2024-02-14T00:50:05;-1.00;99.90
15217;DHT22;7711;46.634;14.318;2024-02-14T00:52:34;-1.10;99.90
15217;DHT22;7711;46.634;14.318;2024-02-14T00:55:01;-1.10;99.90
15217;DHT22;7711;46.634;14.318;2024-02-14T00:57:29;-1.20;99.90
15217;DHT22;7711;46.634;14.318;2024-02-14T00:59:56;-1.30;99.90
15217;DHT22;7711;46.634;14.318;2024-02-14T01:02:23;-1.20;99.90
15217;DHT22;7711;46.634;14.318;2024-02-14T01:04:51;-1.40;99.90
15217;DHT22;7711;46.634;14.318;2024-02-14T01:07:18;-1.50;99.90
15217;DHT22;7711;46.634;14.318;2024-02-14T01:09:47;-1.50;99.90
15217;DHT22;7711;46.634;14.318;2024-02-14T01:12:14;-1.40;99.90
15217;DHT22;7711;46.634;14.318;2024-02-14T01:14:41;-1.30;99.90
15217;DHT22;7711;46.634;14.318;2024-02-14T01:17:09;-1.40;99.90
15217;DHT22;7711;46.634;14.318;2024-02-14T01:19:35;-1.30;99.90
15217;DHT22;7711;46.634;14.318;2024-02-14T01:22:03;-0.90;99.90
15217;DHT22;7711;46.634;14.318;2024-02-14T01:24:30;-1.20;99.90
15217;DHT22;7711;46.634;14.318;2024-02-14T01:26:58;-1.20;99.90
15217;DHT22;7711;46.634;14.318;2024-02-14T01:29:25;-1.20;99.90
15217;DHT22;7711;46.634;14.318;2024-02-14T01:31:52;-1.20;99.90
15217;DHT22;7711;46.634;14.318;2024-02-14T01:34:19;-1.10;99.90
15217;DHT22;7711;46.634;14.318;2024-02-14T01:36:48;-1.00;99.90
15217;DHT22;7711;46.634;14.318;2024-02-14T01:39:15;-1.30;99.90
15217;DHT22;7711;46.634;14.318;2024-02-14T01:41:44;-1.40;99.90
15217;DHT22;7711;46.634;14.318;2024-02-14T01:44:15;-1.40;99.90
15217;DHT22;7711;46.634;14.318;2024-02-14T01:46:42;-1.50;99.90
15217;DHT22;7711;46.634;14.318;2024-02-14T01:49:10;-1.40;99.90
15217;DHT22;7711;46.634;14.318;2024-02-14T01:51:40;-1.50;99.90
15217;DHT22;7711;46.634;14.318;2024-02-14T01:54:08;-1.50;99.90
15217;DHT22;7711;46.634;14.318;2024-02-14T01:56:36;-1.60;99.90
15217;DHT22;7711;46.634;14.318;2024-02-14T01:59:03;-1.70;99.90
15217;DHT22;7711;46.634;14.318;2024-02-14T02:01:32;-1.60;99.90
15217;DHT22;7711;46.634;14.318;2024-02-14T02:04:00;-1.70;99.90
15217;DHT22;7711;46.634;14.318;2024-02-14T02:06:27;-1.80;99.90
15217;DHT22;7711;46.634;14.318;2024-02-14T02:08:56;-1.70;99.90
15217;DHT22;7711;46.634;14.318;2024-02-14T02:11:24;-1.70;99.90
15217;DHT22;7711;46.634;14.318;2024-02-14T02:13:52;-1.70;99.90
15217;DHT22;7711;46.634;14.318;2024-02-14T02:16:19;-1.70;99.90
15217;DHT22;7711;46.634;14.318;2024-02-14T02:18:48;-1.70;99.90
15217;DHT22;7711;46.634;14.318;2024-02-14T02:21:15;-1.70;99.90
15217;DHT22;7711;46.634;14.318;2024-02-14T02:23:46;-1.50;99.90
15217;DHT22;7711;46.634;14.318;2024-02-14T02:26:13;-1.70;99.90
15217;DHT22;7711;46.634;14.318;2024-02-14T02:28:40;-1.70;99.90
15217;DHT22;7711;46.634;14.318;2024-02-14T02:31:08;-1.70;99.90
15217;DHT22;7711;46.634;14.318;2024-02-14T02:33:35;-1.70;99.90
15217;DHT22;7711;46.634;14.318;2024-02-14T02:36:03;-1.70;99.90
15217;DHT22;7711;46.634;14.318;2024-02-14T02:38:31;-1.70;99.90
15217;DHT22;7711;46.634;14.318;2024-02-14T02:41:00;-1.80;99.90
15217;DHT22;7711;46.634;14.318;2024-02-14T02:43:27;-1.70;99.90
15217;DHT22;7711;46.634;14.318;2024-02-14T02:45:54;-1.60;99.90
15217;DHT22;7711;46.634;14.318;2024-02-14T02:48:21;-1.60;99.90
15217;DHT22;7711;46.634;14.318;2024-02-14T02:50:48;-1.70;99.90
15217;DHT22;7711;46.634;14.318;2024-02-14T02:53:16;-1.70;99.90
15217;DHT22;7711;46.634;14.318;2024-02-14T02:55:43;-1.70;99.90
15217;DHT22;7711;46.634;14.318;2024-02-14T02:58:11;-1.80;99.90
15217;DHT22;7711;46.634;14.318;2024-02-14T03:00:39;-1.70;99.90
15217;DHT22;7711;46.634;14.318;2024-02-14T03:03:07;-1.90;99.90
15217;DHT22;7711;46.634;14.318;2024-02-14T03:05:34;-2.00;99.90
15217;DHT22;7711;46.634;14.318;2024-02-14T03:08:01;-2.00;99.90
15217;DHT22;7711;46.634;14.318;2024-02-14T03:10:28;-2.10;1.00
15217;DHT22;7711;46.634;14.318;2024-02-14T03:12:56;-2.20;1.00
15217;DHT22;7711;46.634;14.318;2024-02-14T03:15:24;-2.30;1.00
15217;DHT22;7711;46.634;14.318;2024-02-14T03:17:52;-2.30;1.00
15217;DHT22;7711;46.634;14.318;2024-02-14T03:20:19;-2.30;1.00
15217;DHT22;7711;46.634;14.318;2024-02-14T03:22:46;-2.20;1.00
15217;DHT22;7711;46.634;14.318;2024-02-14T03:25:13;-2.30;1.00
15217;DHT22;7711;46.634;14.318;2024-02-14T03:27:42;-2.30;1.00
15217;DHT22;7711;46.634;14.318;2024-02-14T03:30:11;-2.30;1.00
15217;DHT22;7711;46.634;14.318;2024-02-14T03:32:43;-2.30;1.00
15217;DHT22;7711;46.634;14.318;2024-02-14T03:35:10;-2.30;1.00
15217;DHT22;7711;46.634;14.318;2024-02-14T03:37:40;-2.30;1.00
15217;DHT22;7711;46.634;14.318;2024-02-14T03:40:09;-2.20;1.00
15217;DHT22;7711;46.634;14.318;2024-02-14T03:42:37;-2.40;1.00
15217;DHT22;7711;46.634;14.318;2024-02-14T03:45:06;-2.30;1.00
15217;DHT22;7711;46.634;14.318;2024-02-14T03:47:33;-2.50;1.00
15217;DHT22;7711;46.634;14.318;2024-02-14T03:50:01;-2.40;1.00
15217;DHT22;7711;46.634;14.318;2024-02-14T03:52:30;-2.50;1.00
15217;DHT22;7711;46.634;14.318;2024-02-14T03:54:57;-2.30;1.00
15217;DHT22;7711;46.634;14.318;2024-02-14T03:57:25;-2.30;1.00
15217;DHT22;7711;46.634;14.318;2024-02-14T03:59:54;-2.50;1.00
15217;DHT22;7711;46.634;14.318;2024-02-14T04:02:21;-2.50;1.00
15217;DHT22;7711;46.634;14.318;2024-02-14T04:04:49;-2.30;1.00
15217;DHT22;7711;46.634;14.318;2024-02-14T04:07:17;-2.40;1.00
15217;DHT22;7711;46.634;14.318;2024-02-14T04:09:44;-2.50;1.00
15217;DHT22;7711;46.634;14.318;2024-02-14T04:12:11;-2.60;1.00
15217;DHT22;7711;46.634;14.318;2024-02-14T04:14:39;-2.50;1.00
15217;DHT22;7711;46.634;14.318;2024-02-14T04:17:06;-2.60;1.00
15217;DHT22;7711;46.634;14.318;2024-02-14T04:19:34;-2.70;1.00
15217;DHT22;7711;46.634;14.318;2024-02-14T04:22:02;-2.60;1.00
15217;DHT22;7711;46.634;14.318;2024-02-14T04:24:33;-2.60;1.00
15217;DHT22;7711;46.634;14.318;2024-02-14T04:27:00;-2.40;1.00
15217;DHT22;7711;46.634;14.318;2024-02-14T04:29:28;-2.50;1.00
15217;DHT22;7711;46.634;14.318;2024-02-14T04:31:56;-2.50;1.00
15217;DHT22;7711;46.634;14.318;2024-02-14T04:34:23;-2.60;1.00
15217;DHT22;7711;46.634;14.318;2024-02-14T04:36:50;-2.80;1.00
15217;DHT22;7711;46.634;14.318;2024-02-14T04:39:17;-3.00;1.00
15217;DHT22;7711;46.634;14.318;2024-02-14T04:41:46;-2.90;1.00
15217;DHT22;7711;46.634;14.318;2024-02-14T04:44:13;-2.60;1.00
15217;DHT22;7711;46.634;14.318;2024-02-14T04:46:40;-2.60;1.00
15217;DHT22;7711;46.634;14.318;2024-02-14T04:49:09;-3.10;1.00
15217;DHT22;7711;46.634;14.318;2024-02-14T04:51:36;-3.00;1.00
15217;DHT22;7711;46.634;14.318;2024-02-14T04:54:03;-2.70;1.00
15217;DHT22;7711;46.634;14.318;2024-02-14T04:56:31;-2.80;1.00
15217;DHT22;7711;46.634;14.318;2024-02-14T04:58:59;-3.00;1.00
15217;DHT22;7711;46.634;14.318;2024-02-14T05:01:27;-3.20;1.00
15217;DHT22;7711;46.634;14.318;2024-02-14T05:03:54;-3.30;1.00
15217;DHT22;7711;46.634;14.318;2024-02-14T05:06:21;-3.20;1.00
15217;DHT22;7711;46.634;14.318;2024-02-14T05:08:48;-3.20;1.00
15217;DHT22;7711;46.634;14.318;2024-02-14T05:11:17;-3.00;1.00
15217;DHT22;7711;46.634;14.318;2024-02-14T05:13:44;-3.10;1.00
15217;DHT22;7711;46.634;14.318;2024-02-14T05:16:13;-3.10;1.00
15217;DHT22;7711;46.634;14.318;2024-02-14T05:18:40;-3.10;1.00
15217;DHT22;7711;46.634;14.318;2024-02-14T05:21:07;-3.00;1.00
15217;DHT22;7711;46.634;14.318;2024-02-14T05:23:34;-2.90;1.00
15217;DHT22;7711;46.634;14.318;2024-02-14T05:26:03;-2.90;1.00
15217;DHT22;7711;46.634;14.318;2024-02-14T05:28:30;-2.90;1.00
15217;DHT22;7711;46.634;14.318;2024-02-14T05:30:57;-3.00;1.00
15217;DHT22;7711;46.634;14.318;2024-02-14T05:33:25;-3.10;1.00
15217;DHT22;7711;46.634;14.318;2024-02-14T05:35:52;-3.10;1.00
15217;DHT22;7711;46.634;14.318;2024-02-14T05:38:19;-2.90;1.00
15217;DHT22;7711;46.634;14.318;2024-02-14T05:40:46;-2.90;1.00
15217;DHT22;7711;46.634;14.318;2024-02-14T05:43:14;-3.10;1.00
15217;DHT22;7711;46.634;14.318;2024-02-14T05:45:41;-3.10;1.00
15217;DHT22;7711;46.634;14.318;2024-02-14T05:48:08;-3.20;1.00
15217;DHT22;7711;46.634;14.318;2024-02-14T05:50:37;-3.10;1.00
15217;DHT22;7711;46.634;14.318;2024-02-14T05:53:04;-3.20;1.00
15217;DHT22;7711;46.634;14.318;2024-02-14T05:55:31;-3.40;1.00
15217;DHT22;7711;46.634;14.318;2024-02-14T05:57:59;-3.40;1.00
15217;DHT22;7711;46.634;14.318;2024-02-14T06:00:26;-3.40;1.00
15217;DHT22;7711;46.634;14.318;2024-02-14T06:02:53;-3.50;1.00
15217;DHT22;7711;46.634;14.318;2024-02-14T06:05:20;-3.40;1.00
15217;DHT22;7711;46.634;14.318;2024-02-14T06:07:48;-3.30;1.00
15217;DHT22;7711;46.634;14.318;2024-02-14T06:10:16;-3.30;1.00
15217;DHT22;7711;46.634;14.318;2024-02-14T06:12:43;-3.30;1.00
15217;DHT22;7711;46.634;14.318;2024-02-14T06:15:10;-3.20;1.00
15217;DHT22;7711;46.634;14.318;2024-02-14T06:17:37;-3.00;1.00
15217;DHT22;7711;46.634;14.318;2024-02-14T06:20:05;-3.10;1.00
15217;DHT22;7711;46.634;14.318;2024-02-14T06:22:33;-3.20;1.00
15217;DHT22;7711;46.634;14.318;2024-02-14T06:25:01;-3.20;1.00
15217;DHT22;7711;46.634;14.318;2024-02-14T06:27:30;-3.20;1.00
15217;DHT22;7711;46.634;14.318;2024-02-14T06:29:57;-3.10;1.00
15217;DHT22;7711;46.634;14.318;2024-02-14T06:32:25;-2.80;1.00
15217;DHT22;7711;46.634;14.318;2024-02-14T06:34:52;-3.00;1.00
15217;DHT22;7711;46.634;14.318;2024-02-14T06:37:19;-3.00;1.00
15217;DHT22;7711;46.634;14.318;2024-02-14T06:39:46;-2.90;1.00
15217;DHT22;7711;46.634;14.318;2024-02-14T06:42:15;-2.80;1.00
15217;DHT22;7711;46.634;14.318;2024-02-14T06:44:42;-2.60;1.00
15217;DHT22;7711;46.634;14.318;2024-02-14T06:47:09;-2.60;1.00
15217;DHT22;7711;46.634;14.318;2024-02-14T06:49:36;-2.50;1.00
15217;DHT22;7711;46.634;14.318;2024-02-14T06:52:04;-2.40;1.00
15217;DHT22;7711;46.634;14.318;2024-02-14T06:54:31;-2.40;1.00
15217;DHT22;7711;46.634;14.318;2024-02-14T06:56:58;-2.40;1.00
15217;DHT22;7711;46.634;14.318;2024-02-14T06:59:27;-2.20;1.00
15217;DHT22;7711;46.634;14.318;2024-02-14T07:01:54;-2.00;1.00
15217;DHT22;7711;46.634;14.318;2024-02-14T07:04:21;-1.70;1.00
15217;DHT22;7711;46.634;14.318;2024-02-14T07:06:51;-2.00;1.00
15217;DHT22;7711;46.634;14.318;2024-02-14T07:09:19;-1.80;1.00
15217;DHT22;7711;46.634;14.318;2024-02-14T07:11:46;-1.80;1.00
15217;DHT22;7711;46.634;14.318;2024-02-14T07:14:13;-1.90;1.00
15217;DHT22;7711;46.634;14.318;2024-02-14T07:16:41;-1.70;1.00
15217;DHT22;7711;46.634;14.318;2024-02-14T07:19:08;-1.50;1.00
15217;DHT22;7711;46.634;14.318;2024-02-14T07:21:35;-1.10;1.00
15217;DHT22;7711;46.634;14.318;2024-02-14T07:24:04;-1.30;99.90
15217;DHT22;7711;46.634;14.318;2024-02-14T07:26:31;-1.30;99.90
15217;DHT22;7711;46.634;14.318;2024-02-14T07:28:58;-1.30;99.90
15217;DHT22;7711;46.634;14.318;2024-02-14T07:31:28;-1.20;99.90
15217;DHT22;7711;46.634;14.318;2024-02-14T07:33:57;-1.00;1.00
15217;DHT22;7711;46.634;14.318;2024-02-14T07:36:24;-0.80;99.90
15217;DHT22;7711;46.634;14.318;2024-02-14T07:38:51;-0.80;99.90
15217;DHT22;7711;46.634;14.318;2024-02-14T07:41:18;-0.70;99.90
15217;DHT22;7711;46.634;14.318;2024-02-14T07:43:45;-0.70;99.90
15217;DHT22;7711;46.634;14.318;2024-02-14T07:46:16;-0.60;99.90
15217;DHT22;7711;46.634;14.318;2024-02-14T07:48:43;-0.40;99.90
15217;DHT22;7711;46.634;14.318;2024-02-14T07:51:12;-0.30;99.90
15217;DHT22;7711;46.634;14.318;2024-02-14T07:53:40;-0.30;99.90
15217;DHT22;7711;46.634;14.318;2024-02-14T07:56:07;-0.20;99.90
15217;DHT22;7711;46.634;14.318;2024-02-14T07:58:34;0.00;99.90
15217;DHT22;7711;46.634;14.318;2024-02-14T08:01:01;0.10;99.90
15217;DHT22;7711;46.634;14.318;2024-02-14T08:03:29;0.20;99.90
15217;DHT22;7711;46.634;14.318;2024-02-14T08:05:56;0.40;99.90
15217;DHT22;7711;46.634;14.318;2024-02-14T08:08:25;0.40;99.90
15217;DHT22;7711;46.634;14.318;2024-02-14T08:10:53;0.60;99.90
15217;DHT22;7711;46.634;14.318;2024-02-14T08:13:19;0.70;99.90
15217;DHT22;7711;46.634;14.318;2024-02-14T08:15:46;0.80;99.90
15217;DHT22;7711;46.634;14.318;2024-02-14T08:18:13;0.90;99.90
15217;DHT22;7711;46.634;14.318;2024-02-14T08:20:40;1.00;99.90
15217;DHT22;7711;46.634;14.318;2024-02-14T08:23:08;1.00;99.90
15217;DHT22;7711;46.634;14.318;2024-02-14T08:25:36;1.00;99.90
15217;DHT22;7711;46.634;14.318;2024-02-14T08:28:03;1.10;99.90
15217;DHT22;7711;46.634;14.318;2024-02-14T08:30:33;1.30;99.90
15217;DHT22;7711;46.634;14.318;2024-02-14T08:33:00;1.30;99.90
15217;DHT22;7711;46.634;14.318;2024-02-14T08:35:27;1.70;99.90
15217;DHT22;7711;46.634;14.318;2024-02-14T08:37:54;1.90;99.90
15217;DHT22;7711;46.634;14.318;2024-02-14T08:40:21;1.80;99.90
15217;DHT22;7711;46.634;14.318;2024-02-14T08:42:50;1.70;99.90
15217;DHT22;7711;46.634;14.318;2024-02-14T08:45:17;1.70;99.90
15217;DHT22;7711;46.634;14.318;2024-02-14T08:47:44;1.80;99.90
15217;DHT22;7711;46.634;14.318;2024-02-14T08:50:11;2.30;99.90
15217;DHT22;7711;46.634;14.318;2024-02-14T08:52:39;2.10;99.90
15217;DHT22;7711;46.634;14.318;2024-02-14T08:55:06;2.20;99.90
15217;DHT22;7711;46.634;14.318;2024-02-14T08:57:40;2.30;99.90
15217;DHT22;7711;46.634;14.318;2024-02-14T09:00:09;2.50;99.90
15217;DHT22;7711;46.634;14.318;2024-02-14T09:02:40;2.80;99.90
15217;DHT22;7711;46.634;14.318;2024-02-14T09:05:07;2.70;99.90
15217;DHT22;7711;46.634;14.318;2024-02-14T09:07:35;2.80;99.90
15217;DHT22;7711;46.634;14.318;2024-02-14T09:10:02;2.90;99.90
15217;DHT22;7711;46.634;14.318;2024-02-14T09:12:31;2.80;99.90
15217;DHT22;7711;46.634;14.318;2024-02-14T09:14:59;2.70;99.90
15217;DHT22;7711;46.634;14.318;2024-02-14T09:17:27;2.60;99.90
15217;DHT22;7711;46.634;14.318;2024-02-14T09:19:54;2.70;99.90
15217;DHT22;7711;46.634;14.318;2024-02-14T09:22:21;2.90;99.90
15217;DHT22;7711;46.634;14.318;2024-02-14T09:24:48;3.30;99.90
15217;DHT22;7711;46.634;14.318;2024-02-14T09:27:15;3.20;99.90
15217;DHT22;7711;46.634;14.318;2024-02-14T09:29:42;3.20;99.90
15217;DHT22;7711;46.634;14.318;2024-02-14T09:32:09;3.10;99.90
15217;DHT22;7711;46.634;14.318;2024-02-14T09:34:37;3.30;99.90
15217;DHT22;7711;46.634;14.318;2024-02-14T09:37:04;3.20;99.90
15217;DHT22;7711;46.634;14.318;2024-02-14T09:39:32;3.30;99.90
15217;DHT22;7711;46.634;14.318;2024-02-14T09:42:07;3.30;99.90
15217;DHT22;7711;46.634;14.318;2024-02-14T09:44:36;3.30;99.90
15217;DHT22;7711;46.634;14.318;2024-02-14T09:47:05;3.50;99.90
15217;DHT22;7711;46.634;14.318;2024-02-14T09:49:32;3.60;99.90
15217;DHT22;7711;46.634;14.318;2024-02-14T09:52:03;3.70;99.90
15217;DHT22;7711;46.634;14.318;2024-02-14T09:54:32;3.80;99.90
15217;DHT22;7711;46.634;14.318;2024-02-14T09:57:01;3.70;99.90
15217;DHT22;7711;46.634;14.318;2024-02-14T09:59:29;3.80;99.90
15217;DHT22;7711;46.634;14.318;2024-02-14T10:01:56;4.00;99.90
15217;DHT22;7711;46.634;14.318;2024-02-14T10:04:23;4.10;99.90
15217;DHT22;7711;46.634;14.318;2024-02-14T10:06:51;4.20;99.90
15217;DHT22;7711;46.634;14.318;2024-02-14T10:09:20;4.30;99.90
15217;DHT22;7711;46.634;14.318;2024-02-14T10:11:47;4.30;99.90
15217;DHT22;7711;46.634;14.318;2024-02-14T10:14:14;4.20;99.90
15217;DHT22;7711;46.634;14.318;2024-02-14T10:16:41;4.40;99.90
15217;DHT22;7711;46.634;14.318;2024-02-14T10:19:15;4.40;99.90
15217;DHT22;7711;46.634;14.318;2024-02-14T10:21:42;4.60;99.90
15217;DHT22;7711;46.634;14.318;2024-02-14T10:24:09;4.70;99.90
15217;DHT22;7711;46.634;14.318;2024-02-14T10:26:38;4.90;99.90
15217;DHT22;7711;46.634;14.318;2024-02-14T10:29:06;5.20;99.90
15217;DHT22;7711;46.634;14.318;2024-02-14T10:31:34;5.30;99.90
15217;DHT22;7711;46.634;14.318;2024-02-14T10:34:02;5.20;99.90
15217;DHT22;7711;46.634;14.318;2024-02-14T10:36:32;5.20;99.90
15217;DHT22;7711;46.634;14.318;2024-02-14T10:39:01;5.20;99.90
15217;DHT22;7711;46.634;14.318;2024-02-14T10:41:30;5.30;99.90
15217;DHT22;7711;46.634;14.318;2024-02-14T10:44:02;5.40;99.90
15217;DHT22;7711;46.634;14.318;2024-02-14T10:46:32;5.50;99.90
15217;DHT22;7711;46.634;14.318;2024-02-14T10:49:02;5.60;99.90
15217;DHT22;7711;46.634;14.318;2024-02-14T10:51:31;5.70;99.90
15217;DHT22;7711;46.634;14.318;2024-02-14T10:53:58;5.80;99.90
15217;DHT22;7711;46.634;14.318;2024-02-14T10:56:28;6.00;99.90
15217;DHT22;7711;46.634;14.318;2024-02-14T10:58:56;6.10;99.90
15217;DHT22;7711;46.634;14.318;2024-02-14T11:01:26;6.10;99.90
15217;DHT22;7711;46.634;14.318;2024-02-14T11:03:57;6.40;99.90
15217;DHT22;7711;46.634;14.318;2024-02-14T11:06:25;6.60;99.90
15217;DHT22;7711;46.634;14.318;2024-02-14T11:09:00;6.90;99.90
15217;DHT22;7711;46.634;14.318;2024-02-14T11:11:28;6.90;99.90
15217;DHT22;7711;46.634;14.318;2024-02-14T11:13:56;7.10;99.90
15217;DHT22;7711;46.634;14.318;2024-02-14T11:16:26;7.30;99.90
15217;DHT22;7711;46.634;14.318;2024-02-14T11:19:05;7.50;99.90
15217;DHT22;7711;46.634;14.318;2024-02-14T11:21:35;7.50;99.90
15217;DHT22;7711;46.634;14.318;2024-02-14T11:24:05;7.60;99.90
15217;DHT22;7711;46.634;14.318;2024-02-14T11:26:39;8.00;99.90
15217;DHT22;7711;46.634;14.318;2024-02-14T11:29:06;7.70;99.90
15217;DHT22;7711;46.634;14.318;2024-02-14T11:31:36;7.90;99.90
15217;DHT22;7711;46.634;14.318;2024-02-14T11:34:04;8.40;99.90
15217;DHT22;7711;46.634;14.318;2024-02-14T11:36:32;8.40;99.90
15217;DHT22;7711;46.634;14.318;2024-02-14T11:39:03;8.10;99.90
15217;DHT22;7711;46.634;14.318;2024-02-14T11:41:32;7.80;99.90
15217;DHT22;7711;46.634;14.318;2024-02-14T11:44:01;7.60;99.90
15217;DHT22;7711;46.634;14.318;2024-02-14T11:46:30;7.50;99.90
15217;DHT22;7711;46.634;14.318;2024-02-14T11:49:00;7.50;99.90
15217;DHT22;7711;46.634;14.318;2024-02-14T11:51:28;7.40;99.90
15217;DHT22;7711;46.634;14.318;2024-02-14T11:53:56;7.40;99.90
15217;DHT22;7711;46.634;14.318;2024-02-14T11:56:30;7.60;99.90
15217;DHT22;7711;46.634;14.318;2024-02-14T11:58:59;7.60;99.90
15217;DHT22;7711;46.634;14.318;2024-02-14T12:01:28;8.00;99.90
15217;DHT22;7711;46.634;14.318;2024-02-14T12:03:56;8.10;99.90
15217;DHT22;7711;46.634;14.318;2024-02-14T12:06:25;8.30;99.90
15217;DHT22;7711;46.634;14.318;2024-02-14T12:08:53;8.30;99.90
15217;DHT22;7711;46.634;14.318;2024-02-14T12:11:20;8.60;99.90
15217;DHT22;7711;46.634;14.318;2024-02-14T12:13:49;8.60;99.90
15217;DHT22;7711;46.634;14.318;2024-02-14T12:16:19;8.90;99.90
15217;DHT22;7711;46.634;14.318;2024-02-14T12:18:46;8.80;99.90
15217;DHT22;7711;46.634;14.318;2024-02-14T12:21:13;9.20;99.90
15217;DHT22;7711;46.634;14.318;2024-02-14T12:23:42;9.20;99.90
15217;DHT22;7711;46.634;14.318;2024-02-14T12:26:09;9.50;99.90
15217;DHT22;7711;46.634;14.318;2024-02-14T12:28:41;9.60;99.90
15217;DHT22;7711;46.634;14.318;2024-02-14T12:31:08;9.70;99.90
15217;DHT22;7711;46.634;14.318;2024-02-14T12:33:35;9.90;99.90
15217;DHT22;7711;46.634;14.318;2024-02-14T12:36:02;10.00;99.90
15217;DHT22;7711;46.634;14.318;2024-02-14T12:38:29;9.80;99.90
15217;DHT22;7711;46.634;14.318;2024-02-14T12:41:02;9.90;99.90
15217;DHT22;7711;46.634;14.318;2024-02-14T12:43:29;9.80;99.90
15217;DHT22;7711;46.634;14.318;2024-02-14T12:45:56;10.10;99.90
15217;DHT22;7711;46.634;14.318;2024-02-14T12:48:24;10.30;99.90
15217;DHT22;7711;46.634;14.318;2024-02-14T12:50:52;10.40;99.90
15217;DHT22;7711;46.634;14.318;2024-02-14T12:53:19;10.40;99.90
15217;DHT22;7711;46.634;14.318;2024-02-14T12:55:46;10.60;99.90
15217;DHT22;7711;46.634;14.318;2024-02-14T12:58:15;10.80;99.90
15217;DHT22;7711;46.634;14.318;2024-02-14T13:00:43;10.90;99.90
15217;DHT22;7711;46.634;14.318;2024-02-14T13:03:10;10.90;99.90
15217;DHT22;7711;46.634;14.318;2024-02-14T13:05:37;10.70;99.90
15217;DHT22;7711;46.634;14.318;2024-02-14T13:08:05;10.50;99.90
15217;DHT22;7711;46.634;14.318;2024-02-14T13:10:32;10.40;99.90
15217;DHT22;7711;46.634;14.318;2024-02-14T13:12:59;10.50;99.90
15217;DHT22;7711;46.634;14.318;2024-02-14T13:15:28;10.90;99.90
15217;DHT22;7711;46.634;14.318;2024-02-14T13:17:55;11.00;99.90
15217;DHT22;7711;46.634;14.318;2024-02-14T13:20:24;11.50;99.90
15217;DHT22;7711;46.634;14.318;2024-02-14T13:22:52;11.90;99.90
15217;DHT22;7711;46.634;14.318;2024-02-14T13:25:19;12.70;99.90
15217;DHT22;7711;46.634;14.318;2024-02-14T13:27:45;14.00;99.90
15217;DHT22;7711;46.634;14.318;2024-02-14T13:30:13;14.80;99.90
15217;DHT22;7711;46.634;14.318;2024-02-14T13:32:42;15.70;99.90
15217;DHT22;7711;46.634;14.318;2024-02-14T13:35:09;15.50;99.90
15217;DHT22;7711;46.634;14.318;2024-02-14T13:37:39;16.00;99.90
15217;DHT22;7711;46.634;14.318;2024-02-14T13:40:07;16.50;99.90
15217;DHT22;7711;46.634;14.318;2024-02-14T13:42:35;16.30;99.90
15217;DHT22;7711;46.634;14.318;2024-02-14T13:45:04;17.00;99.90
15217;DHT22;7711;46.634;14.318;2024-02-14T13:47:35;17.50;99.90
15217;DHT22;7711;46.634;14.318;2024-02-14T13:50:07;16.90;99.90
15217;DHT22;7711;46.634;14.318;2024-02-14T13:52:34;16.60;99.90
15217;DHT22;7711;46.634;14.318;2024-02-14T13:55:02;15.90;99.90
15217;DHT22;7711;46.634;14.318;2024-02-14T13:57:30;15.30;99.90
15217;DHT22;7711;46.634;14.318;2024-02-14T13:59:58;15.20;99.90
15217;DHT22;7711;46.634;14.318;2024-02-14T14:02:24;14.70;99.90
15217;DHT22;7711;46.634;14.318;2024-02-14T14:04:51;14.50;99.90
15217;DHT22;7711;46.634;14.318;2024-02-14T14:07:20;14.40;99.90
15217;DHT22;7711;46.634;14.318;2024-02-14T14:09:48;15.00;99.90
15217;DHT22;7711;46.634;14.318;2024-02-14T14:12:15;15.40;99.90
15217;DHT22;7711;46.634;14.318;2024-02-14T14:14:42;16.20;99.90
15217;DHT22;7711;46.634;14.318;2024-02-14T14:17:09;16.20;99.90
15217;DHT22;7711;46.634;14.318;2024-02-14T14:19:36;16.50;99.90
15217;DHT22;7711;46.634;14.318;2024-02-14T14:22:03;17.00;99.90
15217;DHT22;7711;46.634;14.318;2024-02-14T14:24:31;17.30;99.90
15217;DHT22;7711;46.634;14.318;2024-02-14T14:26:58;17.40;99.90
15217;DHT22;7711;46.634;14.318;2024-02-14T14:29:26;17.20;99.90
15217;DHT22;7711;46.634;14.318;2024-02-14T14:31:53;16.70;99.90
15217;DHT22;7711;46.634;14.318;2024-02-14T14:34:20;16.60;99.90
15217;DHT22;7711;46.634;14.318;2024-02-14T14:36:47;17.00;99.90
15217;DHT22;7711;46.634;14.318;2024-02-14T14:39:14;17.50;99.90
15217;DHT22;7711;46.634;14.318;2024-02-14T14:41:42;16.60;99.90
15217;DHT22;7711;46.634;14.318;2024-02-14T14:44:09;17.10;99.90
15217;DHT22;7711;46.634;14.318;2024-02-14T14:46:37;16.40;99.90
15217;DHT22;7711;46.634;14.318;2024-02-14T14:49:08;15.30;99.90
15217;DHT22;7711;46.634;14.318;2024-02-14T14:51:35;14.70;99.90
15217;DHT22;7711;46.634;14.318;2024-02-14T14:54:03;14.90;99.90
15217;DHT22;7711;46.634;14.318;2024-02-14T14:56:30;15.30;99.90
15217;DHT22;7711;46.634;14.318;2024-02-14T14:58:59;15.10;99.90
15217;DHT22;7711;46.634;14.318;2024-02-14T15:01:28;14.40;99.90
15217;DHT22;7711;46.634;14.318;2024-02-14T15:03:55;13.70;99.90
15217;DHT22;7711;46.634;14.318;2024-02-14T15:06:22;13.40;99.90
15217;DHT22;7711;46.634;14.318;2024-02-14T15:08:50;13.00;99.90
15217;DHT22;7711;46.634;14.318;2024-02-14T15:11:16;13.30;99.90
15217;DHT22;7711;46.634;14.318;2024-02-14T15:13:46;13.90;99.90
15217;DHT22;7711;46.634;14.318;2024-02-14T15:16:14;14.10;99.90
15217;DHT22;7711;46.634;14.318;2024-02-14T15:18:41;14.00;99.90
15217;DHT22;7711;46.634;14.318;2024-02-14T15:21:09;13.40;99.90
15217;DHT22;7711;46.634;14.318;2024-02-14T15:23:36;13.10;99.90
15217;DHT22;7711;46.634;14.318;2024-02-14T15:26:03;13.70;99.90
15217;DHT22;7711;46.634;14.318;2024-02-14T15:28:32;13.00;99.90
15217;DHT22;7711;46.634;14.318;2024-02-14T15:31:06;12.60;99.90
15217;DHT22;7711;46.634;14.318;2024-02-14T15:33:52;12.40;99.90
15217;DHT22;7711;46.634;14.318;2024-02-14T15:36:21;12.20;99.90
15217;DHT22;7711;46.634;14.318;2024-02-14T15:38:48;11.80;99.90
15217;DHT22;7711;46.634;14.318;2024-02-14T15:41:17;11.50;99.90
15217;DHT22;7711;46.634;14.318;2024-02-14T15:43:44;11.10;99.90